Weather at La Loche Airport

Public forecast

Using degrees Celsius for public forecast. Weather courtesy of forecast.io.

Closest aviation weather report (METAR) to La Loche Airport

Closest report is Buffalo Narrows Airport, 50.2 nm (93.0 km) SE.

2022/12/03 03:00 (retrieved 18 minutes ago)

CYVT 030300Z AUTO 26008G15KT 9SM CLR M23/M26 A2992 RMK SLP191

Closest aviation forecast (TAF) to La Loche Airport

Forecast is more than 6 hours old.

Closest forecast is Buffalo Narrows Airport, 50.2 nm (93.0 km) SE.

2022/12/02 21:00 (retrieved 6 hours ago)

TAF CYVT 022040Z 0221/0304 26006KT P6SM SCT040 TEMPO 0221/0304 5SM IC SCT020 BKN040 BECMG 0221/0223 19012G22KT RMK FCST BASED ON AUTO OBS NXT FCST BY 031400Z